Time;durP1;ratioP1;P1;durP2;ratioP2;P2;SDS_P1;SDS_P2;PMS_P1;PMS_P2;Temp;Humidity;BMP_temperature;BMP_pressure;BME280_temperature;BME280_humidity;BME280_pressure;Samples;Min_cycle;Max_cycle;Signal;HPM_P1;HPM_P2
2020/12/03 00:02:16;;;;;;;29.45;14.70;;;;;;;2.49;59.31;99866.38;4423046;32;20180;-84
2020/12/03 00:04:46;;;;;;;29.52;13.65;;;;;;;2.63;59.32;99862.16;4409741;32;20163;-84
2020/12/03 00:07:12;;;;;;;30.37;14.02;;;;;;;2.62;59.32;99855.28;4422451;32;20159;-85
2020/12/03 00:09:37;;;;;;;32.65;14.15;;;;;;;2.61;59.32;99845.88;4409537;32;20419;-86
2020/12/03 00:12:03;;;;;;;29.85;14.65;;;;;;;2.47;59.32;99832.97;4409521;32;20173;-86
2020/12/03 00:14:28;;;;;;;31.08;13.82;;;;;;;2.49;59.32;99830.41;4422482;32;20131;-84
2020/12/03 00:16:54;;;;;;;29.25;13.52;;;;;;;2.53;59.32;99831.28;4409470;32;20181;-84
2020/12/03 00:19:21;;;;;;;25.70;12.85;;;;;;;2.51;59.32;99821.00;4410049;32;20192;-83
2020/12/03 00:21:48;;;;;;;39.58;13.95;;;;;;;2.50;59.32;99832.13;4422199;32;20122;-83
2020/12/03 00:24:16;;;;;;;28.65;13.05;;;;;;;2.42;59.31;99846.69;4422388;32;20114;-85
2020/12/03 00:26:42;;;;;;;28.58;13.93;;;;;;;2.51;59.33;99861.25;4421477;32;20112;-85
2020/12/03 00:29:07;;;;;;;24.63;12.25;;;;;;;2.50;59.32;99852.69;4409684;32;20101;-84
2020/12/03 00:31:33;;;;;;;26.30;12.32;;;;;;;2.42;59.31;99862.09;4409418;32;20132;-85
2020/12/03 00:33:58;;;;;;;25.20;14.15;;;;;;;2.36;59.32;99869.75;4422508;32;20144;-84
2020/12/03 00:36:24;;;;;;;30.55;12.68;;;;;;;2.48;59.32;99880.09;4422469;32;20196;-84
2020/12/03 00:38:49;;;;;;;25.85;12.35;;;;;;;2.66;59.33;99879.28;4423000;32;20117;-86
2020/12/03 00:41:15;;;;;;;32.88;14.48;;;;;;;2.47;59.32;99871.53;4410349;32;20494;-85
2020/12/03 00:43:40;;;;;;;25.25;12.55;;;;;;;2.45;59.32;99855.25;4423482;32;20105;-87
2020/12/03 00:46:06;;;;;;;28.45;12.80;;;;;;;2.61;59.32;99847.56;4409969;32;20891;-85
2020/12/03 00:48:31;;;;;;;26.25;13.48;;;;;;;2.52;59.32;99832.97;4410523;32;20128;-86
2020/12/03 00:50:56;;;;;;;29.33;13.73;;;;;;;2.44;59.31;99829.56;4410351;32;20453;-87
2020/12/03 00:53:22;;;;;;;28.77;13.43;;;;;;;2.53;59.32;99837.25;4410759;32;20655;-85
2020/12/03 00:55:47;;;;;;;27.55;13.10;;;;;;;2.07;59.29;99837.12;4410681;32;20165;-85
2020/12/03 00:58:13;;;;;;;26.95;12.90;;;;;;;2.27;59.30;99826.06;4423205;32;20152;-85
2020/12/03 01:00:41;;;;;;;27.65;13.10;;;;;;;2.29;59.31;99827.78;4410863;32;20147;-86
2020/12/03 01:03:10;;;;;;;23.35;11.75;;;;;;;2.35;59.30;99827.81;4410763;32;20507;-86
2020/12/03 01:05:41;;;;;;;26.35;12.13;;;;;;;2.32;59.31;99825.22;4410907;32;20116;-87
2020/12/03 01:08:07;;;;;;;25.50;12.30;;;;;;;2.36;59.31;99826.09;4410788;32;20093;-86
2020/12/03 01:10:35;;;;;;;28.20;12.60;;;;;;;2.30;59.31;99821.81;4410074;32;20885;-85
2020/12/03 01:13:04;;;;;;;27.20;12.52;;;;;;;2.11;59.29;99813.19;4409744;32;20132;-86
2020/12/03 01:15:29;;;;;;;27.77;13.52;;;;;;;2.34;59.30;99817.53;4411184;32;20081;-86
2020/12/03 01:17:55;;;;;;;27.30;12.98;;;;;;;2.35;59.30;99807.25;4423840;32;20401;-85
2020/12/03 01:20:22;;;;;;;28.23;12.37;;;;;;;2.44;59.32;99809.84;4423430;32;20267;-86
2020/12/03 01:22:48;;;;;;;28.17;12.13;;;;;;;2.41;59.31;99799.59;4423141;32;20125;-85
2020/12/03 01:25:13;;;;;;;25.83;12.20;;;;;;;2.62;59.32;99801.31;4410474;32;20175;-85
2020/12/03 01:27:42;;;;;;;27.37;12.48;;;;;;;2.56;59.32;99810.72;4422847;32;20093;-85
2020/12/03 01:30:08;;;;;;;28.40;13.30;;;;;;;2.41;59.31;99798.72;4409964;32;20161;-86
2020/12/03 01:32:33;;;;;;;25.30;12.65;;;;;;;2.58;59.32;99791.88;4423339;32;20493;-86
2020/12/03 01:34:59;;;;;;;29.60;12.25;;;;;;;2.52;59.32;99785.88;4410754;32;20093;-87
2020/12/03 01:37:24;;;;;;;29.02;12.95;;;;;;;2.38;59.31;99791.03;4423958;32;20552;-87
2020/12/03 01:39:50;;;;;;;25.75;12.07;;;;;;;2.28;59.29;99796.97;4411449;32;20114;-86
2020/12/03 01:42:15;;;;;;;30.75;11.77;;;;;;;2.34;59.30;99802.13;4410563;32;20388;-88
2020/12/03 01:44:48;;;;;;;23.60;11.88;;;;;;;2.56;59.32;99798.72;4410605;32;20135;-87
2020/12/03 01:47:26;;;;;;;26.33;11.45;;;;;;;2.34;59.30;99794.41;4411115;32;20115;-85
2020/12/03 01:49:51;;;;;;;28.08;12.07;;;;;;;2.58;59.33;99778.16;4424086;32;20070;-86
2020/12/03 01:52:20;;;;;;;28.60;12.27;;;;;;;2.50;59.32;99778.16;4411087;32;20148;-86
2020/12/03 01:54:45;;;;;;;26.23;12.93;;;;;;;2.51;59.32;99761.03;4410071;32;20109;-84
2020/12/03 01:57:34;;;;;;;29.85;12.35;;;;;;;2.38;59.31;99767.91;4422012;32;20370;-86
2020/12/03 02:00:10;;;;;;;27.17;12.23;;;;;;;2.46;59.31;99755.91;4409384;32;20106;-85
2020/12/03 02:02:58;;;;;;;21.20;11.23;;;;;;;2.29;59.31;99753.31;4409371;32;20264;-86
2020/12/03 02:05:26;;;;;;;22.73;11.65;;;;;;;2.31;59.31;99740.47;4432970;32;20132;-84
2020/12/03 02:07:51;;;;;;;23.05;11.05;;;;;;;2.30;59.31;99723.34;4409223;32;20101;-85
2020/12/03 02:10:21;;;;;;;26.98;12.48;;;;;;;2.37;59.31;99723.38;4408856;32;20127;-85
2020/12/03 02:12:49;;;;;;;24.35;11.43;;;;;;;2.10;59.29;99731.88;4421850;32;20105;-84
2020/12/03 02:15:14;;;;;;;26.25;11.07;;;;;;;2.12;59.29;99721.59;4421585;32;20116;-84
2020/12/03 02:17:40;;;;;;;26.62;12.25;;;;;;;2.08;59.29;99738.72;4423012;32;20355;-86
2020/12/03 02:20:08;;;;;;;22.73;11.57;;;;;;;2.06;59.29;99732.72;4410386;32;20148;-86
2020/12/03 02:22:34;;;;;;;24.35;11.85;;;;;;;2.26;59.30;99727.63;4423100;32;20166;-84
2020/12/03 02:24:59;;;;;;;23.98;11.27;;;;;;;2.21;59.29;99734.47;4422459;32;20101;-84
2020/12/03 02:27:25;;;;;;;26.35;11.70;;;;;;;2.38;59.31;99737.94;4422007;32;24221;-84
2020/12/03 02:29:50;;;;;;;24.92;10.82;;;;;;;2.32;59.31;99737.03;4422694;32;20121;-85
2020/12/03 02:32:16;;;;;;;25.25;11.57;;;;;;;2.19;59.30;99730.19;4409893;32;20216;-85
2020/12/03 02:34:42;;;;;;;22.62;11.63;;;;;;;2.31;59.31;99733.63;4410179;32;20151;-86
2020/12/03 02:37:07;;;;;;;24.15;10.52;;;;;;;2.24;59.30;99742.19;4409278;32;20101;-85
2020/12/03 02:39:33;;;;;;;23.35;11.50;;;;;;;2.21;59.29;99725.91;4409614;32;20545;-86
2020/12/03 02:41:59;;;;;;;26.23;11.32;;;;;;;2.21;59.29;99726.78;4411331;32;20110;-86
2020/12/03 02:44:25;;;;;;;23.20;10.80;;;;;;;2.29;59.31;99724.19;4411124;32;20090;-85
2020/12/03 02:46:51;;;;;;;25.30;11.38;;;;;;;2.33;59.30;99719.06;4410276;32;20377;-85
2020/12/03 02:49:16;;;;;;;25.65;11.18;;;;;;;2.40;59.31;99712.25;4411287;32;20519;-85
2020/12/03 02:51:42;;;;;;;27.33;10.90;;;;;;;2.34;59.30;99707.94;4437145;32;20094;-86
2020/12/03 02:54:08;;;;;;;25.62;10.93;;;;;;;2.42;59.31;99705.38;4424935;32;20132;-84
2020/12/03 02:56:33;;;;;;;22.85;11.80;;;;;;;2.35;59.31;99699.38;4424059;32;20120;-85
2020/12/03 02:58:59;;;;;;;20.92;10.73;;;;;;;2.49;59.31;99706.22;4411987;32;20101;-83
2020/12/03 03:01:24;;;;;;;25.58;11.77;;;;;;;2.50;59.31;99710.50;4424265;32;20525;-84
2020/12/03 03:03:50;;;;;;;21.67;11.40;;;;;;;2.57;59.31;99707.06;4410707;32;20094;-84
2020/12/03 03:06:15;;;;;;;24.35;12.00;;;;;;;2.52;59.32;99709.66;4423914;32;20531;-84
2020/12/03 03:08:41;;;;;;;23.42;11.38;;;;;;;2.55;59.32;99709.66;4411355;32;20129;-84
2020/12/03 03:11:06;;;;;;;25.60;10.93;;;;;;;2.75;59.33;99699.38;4411178;32;20149;-85
2020/12/03 03:13:31;;;;;;;24.23;11.02;;;;;;;2.42;59.32;99698.53;4424358;32;20142;-85
2020/12/03 03:16:02;;;;;;;24.08;11.35;;;;;;;2.46;59.31;99686.53;4411448;32;20097;-84
2020/12/03 03:18:57;;;;;;;25.92;11.82;;;;;;;2.22;59.30;99683.97;4411583;32;20737;-85
2020/12/03 03:21:23;;;;;;;24.52;12.25;;;;;;;2.72;59.33;99686.53;4412072;32;20243;-85
2020/12/03 03:23:57;;;;;;;23.00;10.88;;;;;;;2.61;59.32;99691.69;4411609;32;20491;-87
2020/12/03 03:26:26;;;;;;;27.65;12.15;;;;;;;2.61;59.32;99686.53;4410718;32;20093;-85
2020/12/03 03:28:52;;;;;;;23.05;11.25;;;;;;;2.52;59.32;99677.97;4411426;32;20105;-87
2020/12/03 03:31:18;;;;;;;30.92;13.05;;;;;;;2.35;59.30;99678.81;4410629;32;20094;-87
2020/12/03 03:33:43;;;;;;;26.20;12.13;;;;;;;2.55;59.32;99676.25;4411293;32;20146;-87
2020/12/03 03:36:09;;;;;;;25.58;11.27;;;;;;;2.41;59.31;99680.56;4411254;32;20121;-85
2020/12/03 03:38:34;;;;;;;24.37;11.30;;;;;;;2.62;59.32;99667.69;4411139;32;20106;-86
2020/12/03 03:40:59;;;;;;;25.20;11.52;;;;;;;2.61;59.32;99672.84;4410383;32;22156;-85
2020/12/03 03:43:25;;;;;;;26.80;11.27;;;;;;;2.62;59.32;99674.56;4410484;32;20141;-84
2020/12/03 03:45:50;;;;;;;22.50;10.90;;;;;;;2.69;59.33;99671.97;4400790;32;101322;-85
2020/12/03 03:48:16;;;;;;;25.05;11.50;;;;;;;2.67;59.33;99672.81;4398370;32;20477;-85
2020/12/03 03:50:41;;;;;;;28.95;12.02;;;;;;;2.78;59.33;99686.50;4410463;32;20245;-86
2020/12/03 03:53:06;;;;;;;23.25;10.27;;;;;;;2.82;59.34;99670.22;4410413;32;20109;-86
2020/12/03 03:55:32;;;;;;;22.48;10.95;;;;;;;2.71;59.32;99657.41;4411848;32;20109;-86
2020/12/03 03:57:57;;;;;;;20.60;10.48;;;;;;;2.52;59.32;99624.88;4411752;32;20119;-86
2020/12/03 04:00:23;;;;;;;25.25;11.07;;;;;;;2.44;59.32;99624.91;4411906;32;20138;-87
2020/12/03 04:02:48;;;;;;;21.25;10.52;;;;;;;2.39;59.31;99624.06;4410179;32;20161;-83
2020/12/03 04:05:17;;;;;;;21.33;10.25;;;;;;;2.55;59.32;99629.16;4410110;32;20105;-84
2020/12/03 04:07:44;;;;;;;22.73;11.65;;;;;;;2.37;59.31;99623.19;4411489;32;20113;-89
2020/12/03 04:10:09;;;;;;;27.42;11.63;;;;;;;2.14;59.30;99632.63;4411180;32;20170;-86
2020/12/03 04:12:36;;;;;;;22.75;10.93;;;;;;;2.11;59.29;99637.72;4411494;32;20148;-86
2020/12/03 04:15:02;;;;;;;25.52;10.95;;;;;;;2.22;59.30;99620.63;4411492;32;20457;-87
2020/12/03 04:17:28;;;;;;;27.13;11.18;;;;;;;2.14;59.30;99636.06;4423803;32;20128;-84
2020/12/03 04:19:55;;;;;;;23.20;10.50;;;;;;;2.29;59.31;99626.59;4411063;32;20133;-85
2020/12/03 04:22:21;;;;;;;24.52;11.10;;;;;;;2.13;59.30;99625.78;4410976;32;20116;-84
2020/12/03 04:24:46;;;;;;;22.77;9.27;;;;;;;2.07;59.30;99625.75;4411119;32;21052;-84
2020/12/03 04:27:12;;;;;;;28.02;12.37;;;;;;;2.15;59.30;99612.09;4409971;32;20481;-84
2020/12/03 04:29:37;;;;;;;25.92;10.98;;;;;;;1.99;59.29;99612.94;4423558;32;20128;-88
2020/12/03 04:32:02;;;;;;;21.50;10.85;;;;;;;2.12;59.29;99594.09;4411596;32;20163;-87
2020/12/03 04:34:28;;;;;;;23.05;10.10;;;;;;;2.00;59.29;99599.25;4410756;32;22275;-87
2020/12/03 04:36:53;;;;;;;23.75;11.25;;;;;;;2.11;59.29;99601.78;4410989;32;20125;-88
2020/12/03 04:39:19;;;;;;;28.73;10.07;;;;;;;2.02;59.29;99618.06;4436609;32;20136;-87
2020/12/03 04:41:44;;;;;;;22.05;10.38;;;;;;;2.16;59.30;99602.66;4411001;32;20135;-87
2020/12/03 04:44:21;;;;;;;21.30;9.82;;;;;;;2.09;59.30;99586.38;4410922;32;20115;-87
2020/12/03 04:47:20;;;;;;;27.27;10.32;;;;;;;2.15;59.30;99588.13;4436470;32;20122;-85
2020/12/03 04:50:06;;;;;;;22.87;10.52;;;;;;;1.93;59.29;99586.41;4410744;32;20144;-87
2020/12/03 04:52:56;;;;;;;22.62;10.32;;;;;;;2.07;59.29;99577.84;4423204;32;20104;-87
2020/12/03 04:55:24;;;;;;;23.58;9.50;;;;;;;1.88;59.28;99588.09;4423279;32;20466;-86
2020/12/03 04:57:56;;;;;;;27.58;12.23;;;;;;;1.88;59.28;99585.53;4423228;32;20109;-85
2020/12/03 05:00:25;;;;;;;23.65;10.60;;;;;;;1.76;59.27;99576.13;4423532;32;20139;-86
2020/12/03 05:03:28;;;;;;;21.70;9.93;;;;;;;1.80;59.28;99583.81;4422916;32;20102;-87
2020/12/03 05:06:00;;;;;;;24.42;10.60;;;;;;;1.79;59.28;99566.72;4424226;32;20109;-87
2020/12/03 05:08:35;;;;;;;24.92;9.98;;;;;;;1.96;59.28;99561.59;4423539;32;20968;-86
2020/12/03 05:11:00;;;;;;;23.85;10.70;;;;;;;1.87;59.29;99556.44;4423184;32;20189;-85
2020/12/03 05:13:42;;;;;;;20.45;10.07;;;;;;;1.99;59.29;99555.59;4409232;32;20116;-86
2020/12/03 05:16:19;;;;;;;26.33;11.40;;;;;;;2.05;59.29;99560.72;4422658;32;20406;-86
2020/12/03 05:18:52;;;;;;;24.30;11.57;;;;;;;2.00;59.29;99572.72;4422863;32;20118;-85
2020/12/03 05:21:20;;;;;;;27.35;11.82;;;;;;;2.06;59.29;99568.41;4423018;32;20177;-84
2020/12/03 05:23:45;;;;;;;26.42;11.85;;;;;;;1.95;59.28;99577.00;4410100;32;20848;-85
2020/12/03 05:26:13;;;;;;;24.35;11.38;;;;;;;1.98;59.29;99580.41;4409976;32;20097;-86
2020/12/03 05:28:49;;;;;;;23.90;10.68;;;;;;;1.94;59.29;99588.97;4422842;32;20740;-86
2020/12/03 05:31:25;;;;;;;28.27;11.32;;;;;;;1.96;59.29;99582.13;4409900;32;20110;-86
2020/12/03 05:33:57;;;;;;;22.33;10.55;;;;;;;1.98;59.29;99584.69;4422844;32;20513;-86
2020/12/03 05:36:26;;;;;;;22.45;11.05;;;;;;;2.02;59.29;99576.13;4422345;32;20754;-86
2020/12/03 05:38:51;;;;;;;23.98;11.05;;;;;;;2.05;59.29;99576.97;4422046;32;20530;-85
2020/12/03 05:41:17;;;;;;;27.13;11.02;;;;;;;2.21;59.29;99559.84;4410353;32;20160;-85
2020/12/03 05:43:45;;;;;;;27.17;12.30;;;;;;;2.17;59.30;99547.88;4410179;32;20141;-85
2020/12/03 05:46:11;;;;;;;24.98;12.07;;;;;;;2.12;59.29;99550.44;4410156;32;20097;-86
2020/12/03 05:48:37;;;;;;;24.98;10.82;;;;;;;2.12;59.29;99550.44;4410136;32;20136;-86
2020/12/03 05:51:20;;;;;;;18.05;8.68;;;;;;;1.98;59.29;99544.47;4422646;32;20149;-87
2020/12/03 05:54:03;;;;;;;25.08;11.95;;;;;;;1.99;59.29;99545.34;4410399;32;20093;-86
2020/12/03 05:56:31;;;;;;;23.55;11.88;;;;;;;1.98;59.28;99541.06;4409880;32;20124;-85
2020/12/03 05:59:11;;;;;;;22.08;10.95;;;;;;;1.93;59.29;99553.91;4422874;32;20265;-87
2020/12/03 06:01:36;;;;;;;;;;;;;;;2.11;59.29;99551.28;4422393;32;20162;-86
2020/12/03 06:04:20;;;;;;;28.02;10.60;;;;;;;2.00;59.29;99541.91;4422267;32;20365;-87
2020/12/03 06:06:52;;;;;;;27.75;12.35;;;;;;;2.04;59.29;99544.47;4422676;32;20097;-85
2020/12/03 06:09:43;;;;;;;28.87;12.15;;;;;;;2.20;59.29;99540.19;4434696;32;20180;-83
2020/12/03 06:12:18;;;;;;;24.15;10.52;;;;;;;2.03;59.29;99541.91;4422533;32;20171;-86
2020/12/03 06:14:55;;;;;;;25.40;11.20;;;;;;;1.97;59.28;99529.94;4422532;32;20105;-86
2020/12/03 06:17:45;;;;;;;23.15;10.32;;;;;;;1.77;59.28;99535.06;4424319;32;20462;-85
2020/12/03 06:20:17;;;;;;;;;;;;;;;1.69;59.26;99523.97;4412383;32;20171;-88
2020/12/03 06:23:00;;;;;;;24.25;11.12;;;;;;;1.91;59.28;99526.53;4425101;32;19993;-85
2020/12/03 06:25:36;;;;;;;24.48;10.57;;;;;;;1.76;59.27;99528.22;4424119;32;20145;-85
2020/12/03 06:28:53;;;;;;;28.38;11.38;;;;;;;1.98;59.29;99536.78;4419157;32;20445;-85
2020/12/03 06:31:25;;;;;;;25.92;10.93;;;;;;;1.96;59.28;99541.06;4426668;32;20113;-90
2020/12/03 06:34:03;;;;;;;27.27;10.85;;;;;;;2.02;59.29;99530.78;4397740;32;20118;-88
2020/12/03 06:36:39;;;;;;;25.20;11.07;;;;;;;1.81;59.28;99546.19;4397251;32;20093;-86
2020/12/03 06:39:20;;;;;;;23.40;9.98;;;;;;;1.65;59.27;99541.91;4395493;32;20132;-87
2020/12/03 06:41:53;;;;;;;24.35;11.12;;;;;;;1.84;59.28;99539.34;4408044;32;20133;-85
2020/12/03 06:44:58;;;;;;;24.73;11.18;;;;;;;1.91;59.28;99547.06;4396178;32;20147;-82
2020/12/03 06:47:42;;;;;;;23.70;11.00;;;;;;;1.96;59.28;99540.19;4416361;32;20098;-85
2020/12/03 06:50:49;;;;;;;28.33;11.32;;;;;;;1.71;59.27;99544.50;4408411;32;20121;-85
2020/12/03 06:53:52;;;;;;;25.00;11.45;;;;;;;2.00;59.29;99540.19;4417806;32;20124;-86
2020/12/03 06:56:44;;;;;;;23.77;11.02;;;;;;;2.02;59.29;99545.31;4424399;32;20097;-86
2020/12/03 06:59:34;;;;;;;26.55;11.27;;;;;;;1.95;59.28;99548.75;4431366;32;20112;-86
2020/12/03 07:02:27;;;;;;;26.10;10.48;;;;;;;2.09;59.29;99555.56;4424827;32;20139;-86
2020/12/03 07:05:29;;;;;;;25.05;11.60;;;;;;;2.15;59.30;99555.59;4424903;32;20102;-85
2020/12/03 07:08:17;;;;;;;30.83;11.93;;;;;;;2.00;59.29;99555.59;4424399;32;20461;-84
2020/12/03 07:10:55;;;;;;;31.17;11.60;;;;;;;2.16;59.30;99579.56;4436479;32;20101;-87
2020/12/03 07:13:47;;;;;;;24.63;10.68;;;;;;;2.20;59.30;99570.12;4436926;32;20150;-88
2020/12/03 07:16:57;;;;;;;25.25;11.77;;;;;;;2.07;59.29;99577.84;4437393;32;20098;-88
2020/12/03 07:19:31;;;;;;;;;;;;;;;2.09;59.29;99568.41;4424632;32;20755;-88
2020/12/03 07:22:09;;;;;;;25.60;11.60;;;;;;;2.24;59.30;99574.41;4425074;32;19976;-88
2020/12/03 07:24:35;;;;;;;28.23;12.25;;;;;;;2.63;59.32;99565.78;4424993;32;20150;-88
2020/12/03 07:27:23;;;;;;;27.50;12.75;;;;;;;2.60;59.32;99563.19;4424506;32;20101;-89
2020/12/03 07:29:58;;;;;;;28.98;13.02;;;;;;;2.61;59.32;99565.78;4424287;32;20415;-87
2020/12/03 07:33:01;;;;;;;29.85;12.75;;;;;;;2.65;59.33;99564.91;4424449;32;20523;-87
2020/12/03 07:35:38;;;;;;;26.45;12.60;;;;;;;2.79;59.33;99577.69;4425884;32;20704;-88
2020/12/03 07:38:33;;;;;;;23.35;11.80;;;;;;;2.71;59.32;99575.16;4424438;32;20181;-88
2020/12/03 07:40:58;;;;;;;26.85;12.43;;;;;;;2.83;59.34;99575.97;4423828;32;20110;-87
2020/12/03 07:43:31;;;;;;;25.80;12.05;;;;;;;2.65;59.33;99570.03;4410970;32;20104;-88
2020/12/03 07:45:57;;;;;;;27.02;11.48;;;;;;;2.40;59.31;99561.53;4435602;32;20154;-86
2020/12/03 07:48:44;;;;;;;31.87;12.40;;;;;;;2.79;59.33;99569.97;4423121;32;20169;-87
2020/12/03 07:51:12;;;;;;;27.92;12.18;;;;;;;3.16;59.34;99573.25;4433783;32;20776;-87
2020/12/03 07:53:38;;;;;;;27.65;13.23;;;;;;;3.18;59.36;99573.25;4422820;32;20054;-88
2020/12/03 07:56:26;;;;;;;31.75;13.52;;;;;;;3.36;59.36;99563.72;4423171;32;20170;-87
2020/12/03 07:58:55;;;;;;;29.50;12.20;;;;;;;3.39;59.37;99573.13;4423051;32;20125;-87
2020/12/03 08:01:26;;;;;;;28.40;11.90;;;;;;;3.38;59.36;99577.44;4410284;32;20152;-88
2020/12/03 08:03:56;;;;;;;30.25;11.85;;;;;;;3.26;59.36;99587.78;4422829;32;20840;-87
2020/12/03 08:06:29;;;;;;;25.75;11.50;;;;;;;3.23;59.37;99592.94;4410087;32;20062;-86
2020/12/03 08:09:00;;;;;;;26.45;12.50;;;;;;;3.10;59.36;99587.88;4422528;32;20101;-87
2020/12/03 08:11:44;;;;;;;26.37;11.43;;;;;;;3.35;59.37;99594.59;4422330;32;20109;-86
2020/12/03 08:14:32;;;;;;;30.80;14.25;;;;;;;3.10;59.36;99595.59;4422558;32;20163;-87
2020/12/03 08:16:57;;;;;;;32.25;13.90;;;;;;;3.44;59.37;99583.41;4422146;32;20082;-87
2020/12/03 08:19:34;;;;;;;28.48;12.40;;;;;;;3.46;59.38;99582.53;4409417;32;20691;-86
2020/12/03 08:21:59;;;;;;;29.02;13.30;;;;;;;3.52;59.37;99591.91;4409244;32;20124;-86
2020/12/03 08:24:27;;;;;;;31.77;13.40;;;;;;;3.49;59.37;99586.78;4422075;32;20082;-85
2020/12/03 08:27:06;;;;;;;32.70;14.38;;;;;;;3.40;59.37;99585.12;4409693;32;20090;-87
2020/12/03 08:29:37;;;;;;;30.60;14.90;;;;;;;3.40;59.37;99598.00;4409436;32;20123;-87
2020/12/03 08:32:02;;;;;;;31.17;15.70;;;;;;;3.42;59.37;99598.00;4423099;32;20094;-86
2020/12/03 08:34:34;;;;;;;32.83;15.93;;;;;;;3.69;59.39;99590.09;4421883;32;20085;-85
2020/12/03 08:37:01;;;;;;;30.20;14.40;;;;;;;3.55;59.38;99592.78;4422617;32;20193;-86
2020/12/03 08:39:26;;;;;;;34.05;14.90;;;;;;;3.58;59.38;99591.91;4421707;32;20128;-85
2020/12/03 08:41:52;;;;;;;26.98;13.75;;;;;;;3.67;59.38;99582.37;4409216;32;20150;-87
2020/12/03 08:44:18;;;;;;;30.88;14.13;;;;;;;3.50;59.37;99573.06;4409662;32;20439;-88
2020/12/03 08:46:49;;;;;;;29.45;13.48;;;;;;;3.99;59.41;99568.41;4421838;32;20121;-86
2020/12/03 08:49:20;;;;;;;27.83;13.27;;;;;;;4.13;59.41;99570.88;4434608;32;20127;-86
2020/12/03 08:51:48;;;;;;;28.85;12.90;;;;;;;4.23;59.42;99572.47;4422405;32;20110;-86
2020/12/03 08:54:14;;;;;;;32.95;14.35;;;;;;;4.31;59.42;99573.28;4409030;32;20089;-84
2020/12/03 08:56:39;;;;;;;37.45;16.33;;;;;;;4.09;59.41;99577.78;4409083;32;20153;-86
2020/12/03 08:59:17;;;;;;;31.58;14.75;;;;;;;4.18;59.41;99564.81;4421730;32;20200;-84
2020/12/03 09:02:07;;;;;;;31.02;15.45;;;;;;;4.05;59.41;99573.53;4409534;32;20175;-88
2020/12/03 09:04:52;;;;;;;27.37;12.65;;;;;;;4.23;59.42;99559.59;4421986;32;20132;-86
2020/12/03 09:07:27;;;;;;;30.10;13.80;;;;;;;4.06;59.41;99564.94;4422155;32;20199;-86
2020/12/03 09:09:56;;;;;;;35.80;16.45;;;;;;;4.20;59.40;99562.22;4410157;32;20125;-87
2020/12/03 09:12:24;;;;;;;29.37;12.82;;;;;;;4.17;59.41;99559.66;4409040;32;20179;-86
2020/12/03 09:14:49;;;;;;;30.02;14.20;;;;;;;4.23;59.42;99555.31;4408650;32;20085;-86
2020/12/03 09:17:18;;;;;;;26.90;13.52;;;;;;;4.32;59.41;99547.50;4404163;32;20714;-85
2020/12/03 09:19:43;;;;;;;27.45;13.32;;;;;;;4.10;59.40;99550.31;4406581;32;20178;-86
2020/12/03 09:22:09;;;;;;;29.35;13.75;;;;;;;3.92;59.40;99553.88;4432902;32;20165;-85
2020/12/03 09:24:37;;;;;;;35.05;15.10;;;;;;;4.27;59.42;99538.13;4406970;32;20161;-86
2020/12/03 09:27:04;;;;;;;29.35;13.25;;;;;;;4.10;59.41;99540.84;4420599;32;20089;-86
2020/12/03 09:29:29;;;;;;;27.08;13.15;;;;;;;3.96;59.40;99538.38;4408037;32;20132;-83
2020/12/03 09:32:05;;;;;;;29.25;13.13;;;;;;;3.74;59.38;99534.28;4408026;32;20117;-86
2020/12/03 09:34:32;;;;;;;28.20;13.52;;;;;;;3.77;59.39;99531.66;4407878;32;20105;-86
2020/12/03 09:36:57;;;;;;;30.55;14.02;;;;;;;4.00;59.40;99513.44;4408124;32;20121;-86
2020/12/03 09:39:24;;;;;;;30.23;13.57;;;;;;;3.76;59.39;99514.53;4407564;32;20442;-85
2020/12/03 09:41:49;;;;;;;35.63;15.18;;;;;;;3.87;59.39;99501.56;4421051;32;20183;-84
2020/12/03 09:44:15;;;;;;;27.42;13.88;;;;;;;3.97;59.40;99505.75;4407683;32;20490;-84
2020/12/03 09:46:44;;;;;;;30.95;15.73;;;;;;;4.09;59.41;99504.81;4433339;32;20089;-86
2020/12/03 09:49:15;;;;;;;38.30;15.75;;;;;;;4.15;59.41;99497.87;4407369;32;20128;-84
2020/12/03 09:51:42;;;;;;;33.45;16.00;;;;;;;4.23;59.42;99502.94;4420560;32;20536;-84
2020/12/03 09:54:11;;;;;;;31.17;15.60;;;;;;;3.77;59.39;99497.34;4407783;32;20116;-85
2020/12/03 09:56:37;;;;;;;35.70;16.87;;;;;;;4.00;59.40;99496.28;4420476;32;20085;-85
2020/12/03 09:59:04;;;;;;;34.20;15.82;;;;;;;3.88;59.39;99491.25;4433513;32;20519;-85
2020/12/03 10:01:46;;;;;;;32.72;14.82;;;;;;;4.07;59.41;99479.06;4420636;32;20102;-84
2020/12/03 10:04:49;;;;;;;31.92;16.25;;;;;;;4.12;59.40;99474.72;4420597;32;20090;-84
2020/12/03 10:07:33;;;;;;;33.03;14.73;;;;;;;4.45;59.42;99475.19;4421915;32;20097;-86
2020/12/03 10:10:18;;;;;;;29.02;14.45;;;;;;;4.19;59.41;99460.87;4421737;32;20130;-86
2020/12/03 10:13:03;;;;;;;36.60;15.90;;;;;;;4.20;59.42;99454.88;4420679;32;20118;-86
2020/12/03 10:15:40;;;;;;;33.55;15.60;;;;;;;4.10;59.41;99468.72;4432636;32;20105;-85
2020/12/03 10:18:09;;;;;;;38.53;18.23;;;;;;;4.01;59.40;99463.66;4420181;32;20451;-85
2020/12/03 10:20:36;;;;;;;28.58;14.48;;;;;;;4.09;59.41;99464.44;4407382;32;20135;-84
2020/12/03 10:23:14;;;;;;;35.92;16.58;;;;;;;4.20;59.42;99452.28;4407067;32;20925;-85
2020/12/03 10:25:40;;;;;;;35.00;16.83;;;;;;;4.08;59.41;99461.88;4419697;32;20098;-85
2020/12/03 10:28:20;;;;;;;35.10;16.85;;;;;;;4.20;59.42;99454.88;4420052;32;20090;-85
2020/12/03 10:30:45;;;;;;;43.67;22.95;;;;;;;4.10;59.41;99442.97;4407461;32;20164;-85
2020/12/03 10:33:16;;;;;;;38.47;17.15;;;;;;;4.21;59.42;99451.41;4420190;32;20123;-85
2020/12/03 10:35:48;;;;;;;37.80;16.92;;;;;;;4.34;59.42;99448.72;4420383;32;20154;-87
2020/12/03 10:38:20;;;;;;;36.97;16.77;;;;;;;4.55;59.43;99435.56;4420858;32;20078;-86
2020/12/03 10:41:05;;;;;;;41.08;17.80;;;;;;;4.54;59.43;99427.00;4421748;32;20128;-85
2020/12/03 10:43:35;;;;;;;35.83;16.73;;;;;;;4.61;59.44;99426.03;4408816;32;20402;-86
2020/12/03 10:46:08;;;;;;;33.58;15.43;;;;;;;4.26;59.41;99429.06;4408670;32;20454;-88
2020/12/03 10:48:36;;;;;;;38.92;17.10;;;;;;;4.27;59.42;99430.75;4433746;32;20094;-87
2020/12/03 10:51:08;;;;;;;41.20;16.65;;;;;;;4.25;59.41;99422.16;4421357;32;20098;-87
2020/12/03 10:53:34;;;;;;;37.55;18.30;;;;;;;3.92;59.40;99419.97;4409220;32;20793;-88
2020/12/03 10:56:07;;;;;;;39.25;18.40;;;;;;;4.13;59.41;99421.47;4421545;32;20246;-85
2020/12/03 10:59:08;;;;;;;43.83;18.62;;;;;;;4.22;59.42;99426.50;4408471;32;20442;-87
2020/12/03 11:01:34;;;;;;;36.35;16.77;;;;;;;4.10;59.41;99432.66;4422024;32;20124;-86
2020/12/03 11:04:10;;;;;;;38.05;17.90;;;;;;;4.08;59.41;99434.41;4423167;32;20125;-85
2020/12/03 11:06:35;;;;;;;34.47;16.62;;;;;;;4.30;59.42;99430.72;4408754;32;20089;-85
2020/12/03 11:09:03;;;;;;;35.92;17.83;;;;;;;4.33;59.42;99437.56;4409253;32;20458;-85
2020/12/03 11:11:38;;;;;;;37.33;19.17;;;;;;;4.61;59.44;99433.75;4409421;32;20128;-85
2020/12/03 11:14:14;;;;;;;38.13;17.30;;;;;;;4.31;59.42;99436.72;4409650;32;20413;-84
2020/12/03 11:16:59;;;;;;;39.92;18.75;;;;;;;4.59;59.44;99429.50;4422500;32;20089;-85
2020/12/03 11:19:24;;;;;;;34.08;17.70;;;;;;;4.48;59.43;99434.78;4409843;32;20473;-85
2020/12/03 11:22:01;;;;;;;38.80;17.30;;;;;;;4.51;59.44;99427.03;4409675;32;20153;-84
2020/12/03 11:24:35;;;;;;;36.63;17.17;;;;;;;4.52;59.43;99418.44;4410098;32;20184;-85
2020/12/03 11:27:04;;;;;;;39.33;17.08;;;;;;;4.38;59.43;99419.47;4409837;32;20089;-86
2020/12/03 11:29:34;;;;;;;36.60;18.35;;;;;;;4.57;59.43;99421.78;4410611;32;20070;-86
2020/12/03 11:32:05;;;;;;;63.60;20.80;;;;;;;4.47;59.43;99412.47;4412212;32;20110;-88
2020/12/03 11:34:35;;;;;;;37.70;16.50;;;;;;;4.73;59.45;99400.94;4413117;32;20114;-87
2020/12/03 11:37:01;;;;;;;46.45;25.33;;;;;;;4.66;59.44;99400.19;4412556;32;20094;-88
2020/12/03 11:39:27;;;;;;;46.50;19.50;;;;;;;4.78;59.44;99391.44;4412895;32;20568;-87
2020/12/03 11:50:16;;;;;;;50.67;23.17;;;;;;;5.16;59.46;99383.09;4426153;32;20096;-88
2020/12/03 11:52:48;;;;;;;49.90;23.10;;;;;;;5.18;59.47;99377.03;4411927;32;20123;-89
2020/12/03 11:55:21;;;;;;;43.42;18.90;;;;;;;5.00;59.46;99374.78;4413185;32;20081;-90
2020/12/03 11:58:04;;;;;;;47.35;23.20;;;;;;;4.77;59.44;99363.97;4412758;32;20779;-88